Data for 09/02/2013

Time Sea-Level Adjusted Pressure Absolute Pressure Temperature Relative Humidity Dew Point   
(mb) (inHg) (mb) (inHg) (C) (F) (%) (C) (F)
00:05 1019 30.09 848 25.04 21.8 71.2 25 1 33.9
00:10 1019 30.09 848 25.04 21.4 70.6 25 0.7 33.2
00:15 1019 30.09 848 25.04 21.4 70.5 25 0.9 33.7
00:20 1019 30.09 848 25.04 21.2 70.1 26 0.9 33.7
00:25 1019 30.09 848 25.04 21.2 70.1 25 0.7 33.2
00:30 1019 30.09 848 25.04 21 69.8 27 1.3 34.4
00:35 1019 30.09 848 25.04 20.2 68.3 28 1.3 34.4
00:40 1019 30.09 848 25.04 19.9 67.8 29 1.3 34.3
00:45 1019 30.09 848 25.04 19.7 67.5 28 0.9 33.6
00:50 1019 30.09 848 25.04 19.9 67.9 28 0.8 33.4
00:55 1019 30.09 848 25.04 19.8 67.7 27 0.6 33.1
01:00 1019 30.09 848 25.04 19.7 67.4 28 0.7 33.2
01:05 1019 30.09 848 25.04 19.5 67.1 28 0.6 33.1
01:10 1019 30.09 848 25.04 19.4 67 27 0.1 32.1
01:15 1019 30.09 848 25.04 20 68.1 25 -0.2 31.7
01:20 1019 30.09 848 25.04 20.4 68.7 25 -0.2 31.6
01:25 1019 30.09 848 25.04 20.2 68.3 26 0.1 32.1
01:30 1019 30.09 848 25.04 19.6 67.3 26 -0.4 31.3
01:35 1018 30.06 848 25.04 19.5 67.2 27 0 32
01:40 1018 30.06 848 25.04 18.9 66 29 0.6 33.1
01:45 1018 30.06 848 25.04 18.2 64.8 29 0.1 32.2
01:50 1018 30.06 848 25.04 18.6 65.6 28 -0.1 31.7
01:55 1018 30.06 848 25.04 18.7 65.7 28 -0.1 31.8
02:00 1019 30.09 848 25.04 18.8 65.9 27 -0.4 31.4
02:05 1019 30.09 848 25.04 19.1 66.3 27 -0.3 31.5
02:10 1019 30.09 848 25.04 19.1 66.3 27 -0 32
02:15 1018 30.06 848 25.04 19.2 66.6 27 -0.3 31.5
02:20 1018 30.06 848 25.04 19.4 66.9 28 0.6 33
02:25 1018 30.06 848 25.04 19.3 66.7 28 0.3 32.6
02:30 1018 30.06 848 25.04 19.2 66.5 28 0.4 32.7
02:35 1018 30.06 848 25.04 18.6 65.5 29 0.6 33.1
02:40 1018 30.06 848 25.04 18.2 64.8 32 1.2 34.2
02:45 1018 30.06 848 25.04 18.1 64.5 29 -0.1 31.8
02:50 1018 30.06 848 25.04 18 64.3 30 0.1 32.2
02:55 1018 30.06 848 25.04 17.8 64.1 30 0.1 32.2
03:00 1018 30.06 848 25.04 18 64.4 29 -0.3 31.5
03:05 1018 30.06 848 25.04 18.3 65 29 0.2 32.3
03:10 1018 30.06 848 25.04 18.3 64.9 29 0 32
03:15 1018 30.06 848 25.04 18 64.4 29 -0.1 31.9
03:20 1018 30.06 848 25.04 18 64.5 29 -0 32
03:25 1018 30.06 848 25.04 17.8 64 29 -0.4 31.3
03:30 1018 30.06 848 25.04 18.2 64.7 28 -0.4 31.3
03:35 1018 30.06 848 25.04 18.2 64.8 33 1.7 35.1
03:40 1018 30.06 848 25.04 18.2 64.7 28 -0.3 31.4
03:45 1018 30.06 848 25.04 18.1 64.6 29 -0.3 31.5
03:50 1018 30.06 848 25.04 18.1 64.6 29 -0.3 31.5
03:55 1018 30.06 848 25.04 18.3 64.9 28 -0.4 31.2
04:00 1018 30.06 848 25.04 18.6 65.4 28 -0.1 31.8
04:05 1018 30.06 848 25.04 18.3 65 29 0 32
04:10 1018 30.06 848 25.04 18 64.5 29 -0.1 31.8
04:15 1018 30.06 848 25.04 18 64.4 31 0.8 33.5
04:20 1018 30.06 848 25.04 18 64.5 29 -0.3 31.4
04:25 1018 30.06 848 25.04 18 64.4 29 0 32.1
04:30 1018 30.06 848 25.04 17.7 63.9 30 -0 31.9
04:35 1018 30.06 848 25.04 17.6 63.7 30 -0.1 31.9
04:40 1018 30.06 848 25.04 17.5 63.5 30 -0.1 31.8
04:45 1018 30.06 848 25.04 17.5 63.5 30 -0.3 31.5
04:50 1018 30.06 848 25.04 17.5 63.4 30 -0.3 31.5
04:55 1018 30.06 848 25.04 17.3 63.1 31 -0.1 31.9
05:00 1018 30.06 848 25.04 17.2 62.9 31 0 32
05:05 1018 30.06 848 25.04 17 62.6 32 0.1 32.2
05:10 1018 30.06 848 25.04 17.1 62.7 30 -0.3 31.5
05:15 1018 30.06 847 25.01 17.5 63.5 30 -0.1 31.8
05:20 1018 30.06 847 25.01 17.7 63.9 30 0.1 32.1
05:25 1018 30.06 847 25.01 17.7 63.8 30 0 32
05:30 1018 30.06 847 25.01 17.7 63.9 30 -0.1 31.8
05:35 1018 30.06 848 25.04 17.8 64.1 30 0.3 32.6
05:40 1018 30.06 848 25.04 17.4 63.4 32 0.6 33.1
05:45 1018 30.06 848 25.04 17.3 63.1 31 0.3 32.5
05:50 1018 30.06 848 25.04 17.3 63.1 31 -0.1 31.9
05:55 1019 30.09 848 25.04 17.6 63.6 31 0.3 32.6
06:00 1019 30.09 848 25.04 17.7 63.8 30 -0.1 31.8
06:05 1019 30.09 848 25.04 18.2 64.8 29 -0.1 31.9
06:10 1019 30.09 848 25.04 18.4 65.2 29 0.1 32.2
06:15 1019 30.09 848 25.04 18.4 65.2 29 0.1 32.1
06:20 1019 30.09 848 25.04 18.3 65 29 0.4 32.6
06:25 1019 30.09 848 25.04 18.1 64.7 30 0.2 32.4
06:30 1019 30.09 848 25.04 18.2 64.7 30 0.5 32.8
06:35 1019 30.09 848 25.04 17.8 64.1 32 1 33.8
06:40 1019 30.09 848 25.04 18.1 64.5 29 -0.3 31.5
06:45 1019 30.09 848 25.04 19.2 66.5 28 0.3 32.5
06:50 1019 30.09 848 25.04 19 66.1 29 0.5 33
06:55 1019 30.09 848 25.04 18.6 65.5 29 0.3 32.6
07:00 1019 30.09 848 25.04 18.5 65.3 30 0.9 33.7
07:05 1019 30.09 848 25.04 18.3 65 32 1.4 34.5
07:10 1019 30.09 848 25.04 18.1 64.6 32 1.2 34.2
07:15 1019 30.09 848 25.04 17.8 64 33 1.4 34.6
07:20 1019 30.09 848 25.04 17.8 64 32 1.2 34.1
07:25 1019 30.09 848 25.04 18.2 64.7 32 1.5 34.7
07:30 1019 30.09 848 25.04 18.4 65.1 33 2.1 35.7
07:35 1019 30.09 848 25.04 18.3 64.9 34 2.2 36
07:40 1019 30.09 848 25.04 17.9 64.2 33 1.7 35
07:45 1019 30.09 848 25.04 18.1 64.7 34 2.2 36
07:50 1019 30.09 848 25.04 18.4 65 33 2 35.7
07:55 1019 30.09 848 25.04 18.8 65.8 30 1 33.8
08:00 1019 30.09 848 25.04 19.2 66.6 30 1.1 34.1
08:05 1019 30.09 848 25.04 19.4 67 31 1.8 35.3
08:10 1019 30.09 848 25.04 19.3 66.7 36 3.9 39.1
08:15 1019 30.09 848 25.04 18.9 65.9 37 3.9 39.1
08:20 1019 30.09 848 25.04 18.7 65.7 36 3.5 38.2
08:25 1019 30.09 848 25.04 19.6 67.3 31 2.3 36.1
08:30 1019 30.09 848 25.04 20.6 69.1 30 2.8 37.1
08:35 1019 30.09 848 25.04 21 69.8 27 1.7 35.1
08:40 1019 30.09 848 25.04 20.4 68.7 30 2.3 36.1
08:45 1019 30.09 848 25.04 20.2 68.3 30 2.1 35.8
08:50 1019 30.09 848 25.04 21.2 70.2 29 2.5 36.5
08:55 1019 30.09 848 25.04 20.8 69.5 30 2.7 36.9
09:00 1019 30.09 848 25.04 20.8 69.5 29 2.2 35.9
09:05 1019 30.09 848 25.04 21.3 70.3 28 2 35.7
09:10 1019 30.09 848 25.04 21.5 70.6 27 1.9 35.4
09:15 1019 30.09 848 25.04 20.9 69.6 27 1.5 34.8
09:20 1019 30.09 848 25.04 21.5 70.7 27 1.8 35.2
09:25 1019 30.09 848 25.04 21.9 71.3 27 2.3 36.1
09:30 1019 30.09 848 25.04 21.5 70.7 28 2.4 36.4
09:35 1019 30.09 848 25.04 21.4 70.6 28 2.4 36.3
09:40 1019 30.09 848 25.04 21.2 70.1 29 2.5 36.5
09:45 1019 30.09 848 25.04 21 69.8 28 1.8 35.3
09:50 1019 30.09 848 25.04 21.5 70.7 28 2.2 35.9
09:55 1019 30.09 848 25.04 21.9 71.4 27 2.3 36.1
10:00 1019 30.09 848 25.04 21.7 71 28 2.3 36.2
10:05 1019 30.09 848 25.04 21.6 70.9 27 2.2 35.9
10:10 1019 30.09 848 25.04 21.8 71.3 29 3 37.4
10:15 1018 30.06 848 25.04 22 71.7 28 3.1 37.6
10:20 1019 30.09 848 25.04 22 71.7 29 3.2 37.7
10:25 1018 30.06 848 25.04 21.8 71.3 31 4 39.2
10:30 1018 30.06 848 25.04 22.2 71.9 29 3.6 38.4
10:35 1018 30.06 848 25.04 22.4 72.3 29 3.7 38.7
10:40 1018 30.06 848 25.04 22.5 72.6 29 3.9 39.1
10:45 1018 30.06 847 25.01 22.4 72.3 29 3.8 38.8
10:50 1018 30.06 847 25.01 22.7 72.8 29 3.9 39.1
10:55 1018 30.06 847 25.01 23.3 73.9 28 3.7 38.7
11:00 1018 30.06 847 25.01 23.8 74.8 26 3.6 38.6
11:05 1018 30.06 847 25.01 23.8 74.9 26 3.5 38.3
11:10 1018 30.06 847 25.01 23.6 74.4 26 3.1 37.5
11:15 1018 30.06 847 25.01 23.5 74.2 25 2.4 36.3
11:20 1018 30.06 847 25.01 24.2 75.5 25 3.1 37.6
11:25 1018 30.06 847 25.01 24.7 76.4 24 3.2 37.7
11:30 1018 30.06 847 25.01 24.8 76.7 24 3 37.5
11:35 1018 30.06 847 25.01 24.5 76 24 2.7 36.9
11:40 1018 30.06 847 25.01 24.8 76.6 24 3.4 38.1
11:45 1018 30.06 847 25.01 25 77.1 23 2.8 37
11:50 1018 30.06 847 25.01 25 77.1 23 2.9 37.2
11:55 1018 30.06 847 25.01 25.2 77.4 25 3.9 39
12:00 1018 30.06 847 25.01 24.9 76.8 26 4.2 39.6
12:05 1018 30.06 847 25.01 24.7 76.5 25 3.6 38.4
12:10 1018 30.06 847 25.01 24.9 76.8 24 3.2 37.7
12:15 1018 30.06 847 25.01 25 77 26 4.4 39.8
12:20 1018 30.06 847 25.01 24.7 76.4 26 3.9 39
12:25 1018 30.06 847 25.01 24.5 76 27 4.6 40.4
12:30 1018 30.06 847 25.01 24.7 76.5 27 4.7 40.5
12:35 1018 30.06 847 25.01 24.8 76.6 26 4.4 40
12:40 1018 30.06 847 25.01 25.2 77.4 26 4.7 40.5
12:45 1018 30.06 847 25.01 25.7 78.3 24 4.2 39.6
12:50 1018 30.06 847 25.01 25.9 78.6 24 4.2 39.5
12:55 1018 30.06 847 25.01 26.1 78.9 26 5.6 42.1
13:00 1018 30.06 847 25.01 25.8 78.5 26 5.1 41.2
13:05 1018 30.06 847 25.01 25.9 78.5 25 4.6 40.3
13:10 1018 30.06 847 25.01 26.3 79.3 24 4.3 39.8
13:15 1018 30.06 847 25.01 26.8 80.2 23 4 39.3
13:20 1018 30.06 847 25.01 26.9 80.5 22 3.8 38.9
13:25 1018 30.06 847 25.01 26.9 80.4 22 3.6 38.4
13:30 1018 30.06 847 25.01 26.9 80.4 21 3 37.3
13:35 1018 30.06 847 25.01 26.8 80.3 23 4.2 39.5
13:40 1018 30.06 847 25.01 26.8 80.3 22 3.4 38.1
13:45 1018 30.06 847 25.01 26.5 79.7 22 3.3 38
13:50 1018 30.06 847 25.01 26.5 79.7 22 3.2 37.8
13:55 1018 30.06 847 25.01 26.8 80.2 22 3.4 38.2
14:00 1018 30.06 847 25.01 27.1 80.8 20 2.6 36.7
14:05 1018 30.06 847 25.01 27.3 81.2 21 3.3 37.9
14:10 1018 30.06 847 25.01 27.4 81.4 21 3.2 37.7
14:15 1018 30.06 847 25.01 27.5 81.5 20 2.9 37.2
14:20 1018 30.06 847 25.01 27.4 81.3 21 3.2 37.8
14:25 1018 30.06 847 25.01 27.2 81 21 3.4 38.2
14:30 1018 30.06 847 25.01 27.2 80.9 21 3 37.4
14:35 1018 30.06 847 25.01 27 80.7 21 3.2 37.7
14:40 1018 30.06 847 25.01 27 80.6 22 3.5 38.3
14:45 1018 30.06 848 25.04 27.1 80.9 21 3.2 37.8
14:50 1018 30.06 848 25.04 27.3 81.1 20 2.5 36.5
14:55 1018 30.06 848 25.04 27.4 81.4 20 2.5 36.6
15:00 1018 30.06 848 25.04 27.5 81.5 22 4.2 39.6
15:05 1018 30.06 848 25.04 27.4 81.2 22 4.1 39.4
15:10 1018 30.06 848 25.04 27.3 81.1 23 4.5 40.1
15:15 1018 30.06 848 25.04 27.2 80.9 24 4.9 40.9
15:20 1018 30.06 848 25.04 27.3 81.1 21 3.5 38.4
15:25 1018 30.06 848 25.04 27.1 80.8 26 6 42.8
15:30 1018 30.06 848 25.04 26.7 80 25 5.5 41.9
15:35 1018 30.06 848 25.04 26.4 79.6 26 5.4 41.8
15:40 1018 30.06 848 25.04 26.4 79.5 26 5.9 42.6
15:45 1018 30.06 848 25.04 26.3 79.4 26 5.7 42.3
15:50 1018 30.06 848 25.04 26.2 79.2 27 6 42.9
15:55 1018 30.06 848 25.04 26.2 79.1 30 7.3 45.2
16:00 1018 30.06 847 25.01 26.2 79.1 29 6.8 44.2
16:05 1018 30.06 847 25.01 26.2 79.2 29 6.9 44.4
16:10 1018 30.06 847 25.01 26.2 79.1 29 6.9 44.5
16:15 1018 30.06 847 25.01 26.1 78.9 27 6 42.7
16:20 1018 30.06 847 25.01 26 78.8 28 6.2 43.1
16:25 1018 30.06 847 25.01 26.1 79 28 6.4 43.5
16:30 1018 30.06 847 25.01 26.2 79.1 28 6.6 43.9
16:35 1018 30.06 847 25.01 26.1 78.9 29 6.8 44.2
16:40 1018 30.06 848 25.04 26.2 79.1 29 7 44.7
16:45 1018 30.06 848 25.04 26.2 79.1 28 6.4 43.5
16:50 1018 30.06 848 25.04 26.1 79 29 6.8 44.2
16:55 1018 30.06 848 25.04 26.2 79.1 28 6.5 43.7
17:00 1018 30.06 848 25.04 26.1 79 28 6.7 44
17:05 1018 30.06 848 25.04 26.3 79.3 27 6.3 43.4
17:10 1018 30.06 848 25.04 26.4 79.5 28 6.9 44.4
17:15 1018 30.06 848 25.04 26.4 79.6 31 8.3 46.9
17:20 1018 30.06 848 25.04 26.2 79.1 31 8.1 46.6
17:25 1018 30.06 848 25.04 25.9 78.7 32 8.2 46.8
17:30 1018 30.06 848 25.04 25.6 78.1 32 8.1 46.6
17:35 1018 30.06 848 25.04 25.3 77.5 33 8.1 46.6
17:40 1018 30.06 848 25.04 24.9 76.8 34 8.3 46.9
17:45 1018 30.06 848 25.04 24.5 76.2 35 8.2 46.7
17:50 1018 30.06 848 25.04 24.4 75.9 35 8.3 46.9
17:55 1018 30.06 848 25.04 24.4 75.9 35 8.3 47
18:00 1018 30.06 848 25.04 24.3 75.8 36 8.7 47.6
18:05 1018 30.06 848 25.04 24.2 75.6 37 8.7 47.6
18:10 1018 30.06 848 25.04 24.1 75.4 37 8.6 47.5
18:15 1018 30.06 848 25.04 24 75.1 37 8.7 47.7
18:20 1018 30.06 848 25.04 23.9 75 38 8.7 47.7
18:25 1019 30.09 848 25.04 23.9 74.9 38 9 48.2
18:30 1019 30.09 848 25.04 23.7 74.6 40 9.4 48.8
18:35 1019 30.09 848 25.04 23.2 73.8 38 8.3 46.9
18:40 1019 30.09 848 25.04 23.4 74 39 8.8 47.8
18:45 1019 30.09 848 25.04 23.4 74.2 38 8.4 47.1
18:50 1019 30.09 848 25.04 23.3 74 38 8.4 47.2
18:55 1019 30.09 848 25.04 23.3 73.9 38 8.5 47.3
19:00 1019 30.09 848 25.04 23.2 73.8 38 8.4 47.2
19:05 1019 30.09 848 25.04 23 73.5 39 8.7 47.6
19:10 1019 30.09 848 25.04 23 73.3 39 8.4 47
19:15 1019 30.09 848 25.04 23 73.3 39 8.4 47
19:20 1019 30.09 848 25.04 23 73.4 39 8.5 47.4
19:25 1019 30.09 848 25.04 22.7 72.9 41 8.8 47.8
19:30 1019 30.09 848 25.04 22.2 71.9 41 8.4 47.1
19:35 1019 30.09 848 25.04 22 71.7 40 7.9 46.1
19:40 1019 30.09 848 25.04 22.2 71.9 39 7.9 46.2
19:45 1019 30.09 848 25.04 22.2 71.9 38 7.5 45.6
19:50 1019 30.09 848 25.04 22.3 72.1 38 7.6 45.6
19:55 1019 30.09 848 25.04 22.3 72.1 39 7.8 46
20:00 1019 30.09 848 25.04 21.9 71.4 41 8.2 46.7
20:05 1019 30.09 848 25.04 21.4 70.5 43 8.4 47
20:10 1019 30.09 848 25.04 21.1 70 44 8.4 47.2
20:15 1019 30.09 848 25.04 20.7 69.3 45 8.4 47.2
20:20 1019 30.09 848 25.04 20.5 68.8 45 8.3 46.9
20:25 1019 30.09 848 25.04 20.3 68.5 45 8.1 46.6
20:30 1019 30.09 848 25.04 20.2 68.4 47 8.6 47.4
20:35 1019 30.09 849 25.07 20.3 68.5 45 8.2 46.8
20:40 1019 30.09 849 25.07 20.3 68.5 46 8.3 47
20:45 1019 30.09 849 25.07 20.1 68.3 47 8.5 47.2
20:50 1019 30.09 849 25.07 20.2 68.4 46 8.5 47.2
20:55 1019 30.09 849 25.07 20 68 47 8.5 47.4
21:00 1019 30.09 849 25.07 19.8 67.6 49 8.9 48.1
21:05 1019 30.09 849 25.07 19.8 67.6 49 8.8 47.8
21:10 1019 30.09 849 25.07 19.8 67.6 47 8.3 47
21:15 1019 30.09 849 25.07 19.8 67.7 47 8.4 47.1
21:20 1019 30.09 849 25.07 19.8 67.6 48 8.7 47.6
21:25 1019 30.09 849 25.07 19.7 67.5 49 8.8 47.8
21:30 1020 30.12 849 25.07 19.3 66.7 48 8.1 46.5
21:35 1020 30.12 849 25.07 19.1 66.5 50 8.6 47.4
21:40 1020 30.12 849 25.07 19.1 66.4 49 8.2 46.7
21:45 1020 30.12 849 25.07 19.3 66.7 47 7.9 46.2
21:50 1020 30.12 849 25.07 18.9 66 49 8.2 46.8
21:55 1020 30.12 849 25.07 18.2 64.8 51 7.9 46.2
22:00 1020 30.12 849 25.07 18 64.4 51 7.9 46.2
22:05 1020 30.12 849 25.07 17.5 63.5 57 8.9 48.1
22:10 1020 30.12 849 25.07 17.3 63.2 53 7.7 45.8
22:15 1020 30.12 849 25.07 17.5 63.4 53 7.8 46
22:20 1020 30.12 849 25.07 17.6 63.7 51 7.6 45.7
22:25 1020 30.12 849 25.07 17.8 64.1 49 7.2 44.9
22:30 1020 30.12 849 25.07 18.2 64.7 49 7.4 45.4
22:35 1020 30.12 849 25.07 18.2 64.7 50 7.6 45.7
22:40 1020 30.12 849 25.07 18 64.3 50 7.5 45.6
22:45 1020 30.12 849 25.07 18.2 64.8 51 7.9 46.2
22:50 1020 30.12 849 25.07 18.2 64.7 52 8.2 46.8
22:55 1020 30.12 849 25.07 17.9 64.2 53 8.4 47.1
23:00 1020 30.12 849 25.07 17.7 63.8 54 8.3 47
23:05 1020 30.12 849 25.07 17.3 63.1 54 8 46.5
23:10 1020 30.12 849 25.07 17.2 63 55 8.3 46.9
23:15 1020 30.12 849 25.07 17 62.6 56 8.2 46.8
23:20 1020 30.12 849 25.07 17.1 62.8 55 8.1 46.7
23:25 1020 30.12 849 25.07 17.3 63.1 54 7.9 46.2
23:30 1020 30.12 849 25.07 17.7 63.9 53 8.1 46.6
23:35 1020 30.12 849 25.07 17.9 64.3 53 8.3 47
23:40 1020 30.12 849 25.07 17.7 63.8 54 8.4 47.2
23:45 1020 30.12 849 25.07 17.3 63.2 56 8.6 47.5
23:50 1020 30.12 849 25.07 16.9 62.5 59 9.1 48.4
23:55 1020 30.12 849 25.07 16.9 62.3 61 9.4 48.9
24:00 1020 30.12 849 25.07 16.8 62.2 59 8.7 47.6